sensor_id;sensor_type;location;lat;lon;timestamp;pressure;altitude;pressure_sealevel;temperature;humidity
74169;BME280;62523;53.336;83.690;2022-07-29T00:02:30;97866.22;;;20.88;56.06
74169;BME280;62523;53.336;83.690;2022-07-29T00:07:32;97864.97;;;21.41;54.55
74169;BME280;62523;53.336;83.690;2022-07-29T00:12:33;97872.97;;;21.20;55.10
74169;BME280;62523;53.336;83.690;2022-07-29T00:17:35;97875.84;;;22.11;52.60
74169;BME280;62523;53.336;83.690;2022-07-29T00:22:39;97883.22;;;22.59;51.46
74169;BME280;62523;53.336;83.690;2022-07-29T00:27:40;97880.22;;;21.84;53.04
74169;BME280;62523;53.336;83.690;2022-07-29T00:32:41;97902.03;;;22.09;52.11
74169;BME280;62523;53.336;83.690;2022-07-29T00:37:43;97894.97;;;22.58;50.67
74169;BME280;62523;53.336;83.690;2022-07-29T00:42:45;97899.28;;;23.55;48.22
74169;BME280;62523;53.336;83.690;2022-07-29T00:47:46;97893.66;;;23.30;49.27
74169;BME280;62523;53.336;83.690;2022-07-29T00:52:48;97894.31;;;23.32;49.33
74169;BME280;62523;53.336;83.690;2022-07-29T00:57:49;97889.56;;;23.47;47.97
74169;BME280;62523;53.336;83.690;2022-07-29T01:02:51;97889.59;;;23.54;47.73
74169;BME280;62523;53.336;83.690;2022-07-29T01:07:53;97886.91;;;22.51;50.54
74169;BME280;62523;53.336;83.690;2022-07-29T01:12:58;97889.44;;;23.89;47.49
74169;BME280;62523;53.336;83.690;2022-07-29T01:18:11;97896.81;;;23.54;47.71
74169;BME280;62523;53.336;83.690;2022-07-29T01:29:10;97897.34;;;23.22;48.20
74169;BME280;62523;53.336;83.690;2022-07-29T01:34:27;97890.31;;;23.15;48.52
74169;BME280;62523;53.336;83.690;2022-07-29T01:39:33;97883.84;;;24.04;47.33
74169;BME280;62523;53.336;83.690;2022-07-29T01:44:41;97889.22;;;24.10;46.37
74169;BME280;62523;53.336;83.690;2022-07-29T01:49:50;97883.03;;;24.95;44.21
74169;BME280;62523;53.336;83.690;2022-07-29T01:54:55;97880.94;;;24.25;46.23
74169;BME280;62523;53.336;83.690;2022-07-29T01:59:59;97875.16;;;24.15;46.00
74169;BME280;62523;53.336;83.690;2022-07-29T02:05:02;97882.03;;;23.16;49.12
74169;BME280;62523;53.336;83.690;2022-07-29T02:10:05;97875.78;;;23.97;47.04
74169;BME280;62523;53.336;83.690;2022-07-29T02:15:08;97873.47;;;22.99;49.29
74169;BME280;62523;53.336;83.690;2022-07-29T02:20:11;97875.69;;;21.63;53.58
74169;BME280;62523;53.336;83.690;2022-07-29T02:25:13;97876.81;;;20.96;55.14
74169;BME280;62523;53.336;83.690;2022-07-29T02:30:17;97880.00;;;21.21;55.38
74169;BME280;62523;53.336;83.690;2022-07-29T02:35:21;97875.94;;;21.68;54.37
74169;BME280;62523;53.336;83.690;2022-07-29T02:40:22;97876.84;;;21.75;54.69
74169;BME280;62523;53.336;83.690;2022-07-29T02:45:24;97878.91;;;21.37;55.75
74169;BME280;62523;53.336;83.690;2022-07-29T02:50:34;97868.56;;;21.77;54.96
74169;BME280;62523;53.336;83.690;2022-07-29T02:55:43;97880.84;;;22.14;54.01
74169;BME280;62523;53.336;83.690;2022-07-29T03:00:47;97871.31;;;22.05;53.89
74169;BME280;62523;53.336;83.690;2022-07-29T03:05:54;97871.38;;;21.62;55.31
74169;BME280;62523;53.336;83.690;2022-07-29T03:10:56;97873.38;;;21.81;55.04
74169;BME280;62523;53.336;83.690;2022-07-29T03:15:58;97857.75;;;22.41;53.72
74169;BME280;62523;53.336;83.690;2022-07-29T03:21:00;97861.50;;;22.95;53.11
74169;BME280;62523;53.336;83.690;2022-07-29T03:26:02;97846.00;;;22.49;53.55
74169;BME280;62523;53.336;83.690;2022-07-29T03:31:03;97850.34;;;22.98;53.15
74169;BME280;62523;53.336;83.690;2022-07-29T03:36:04;97854.75;;;23.06;52.43
74169;BME280;62523;53.336;83.690;2022-07-29T03:41:09;97850.91;;;22.74;53.63
74169;BME280;62523;53.336;83.690;2022-07-29T03:46:11;97849.78;;;23.09;52.42
74169;BME280;62523;53.336;83.690;2022-07-29T03:51:15;97847.25;;;22.95;52.05
74169;BME280;62523;53.336;83.690;2022-07-29T03:56:16;97840.72;;;23.10;51.47
74169;BME280;62523;53.336;83.690;2022-07-29T04:01:22;97844.06;;;23.19;50.26
74169;BME280;62523;53.336;83.690;2022-07-29T04:06:24;97846.38;;;23.62;47.87
74169;BME280;62523;53.336;83.690;2022-07-29T04:11:26;97844.53;;;23.83;46.94
74169;BME280;62523;53.336;83.690;2022-07-29T04:16:27;97840.41;;;24.00;45.41
74169;BME280;62523;53.336;83.690;2022-07-29T04:21:28;97845.34;;;24.17;45.66
74169;BME280;62523;53.336;83.690;2022-07-29T04:26:29;97846.41;;;23.96;46.32
74169;BME280;62523;53.336;83.690;2022-07-29T04:31:30;97840.16;;;24.35;45.62
74169;BME280;62523;53.336;83.690;2022-07-29T04:36:32;97840.75;;;24.50;45.28
74169;BME280;62523;53.336;83.690;2022-07-29T04:41:33;97836.34;;;24.69;44.71
74169;BME280;62523;53.336;83.690;2022-07-29T04:46:34;97840.25;;;25.25;44.32
74169;BME280;62523;53.336;83.690;2022-07-29T04:51:36;97844.13;;;25.36;43.30
74169;BME280;62523;53.336;83.690;2022-07-29T04:56:37;97843.78;;;25.51;41.98
74169;BME280;62523;53.336;83.690;2022-07-29T05:01:38;97840.72;;;25.72;41.66
74169;BME280;62523;53.336;83.690;2022-07-29T05:06:39;97847.81;;;25.42;42.31
74169;BME280;62523;53.336;83.690;2022-07-29T05:11:40;97846.13;;;25.47;42.66
74169;BME280;62523;53.336;83.690;2022-07-29T05:16:42;97841.88;;;25.90;41.65
74169;BME280;62523;53.336;83.690;2022-07-29T05:21:47;97844.88;;;25.75;41.51
74169;BME280;62523;53.336;83.690;2022-07-29T05:26:48;97848.88;;;25.41;42.39
74169;BME280;62523;53.336;83.690;2022-07-29T05:31:49;97843.78;;;26.08;42.48
74169;BME280;62523;53.336;83.690;2022-07-29T05:36:52;97844.97;;;25.62;42.88
74169;BME280;62523;53.336;83.690;2022-07-29T05:41:54;97837.59;;;26.07;41.63
74169;BME280;62523;53.336;83.690;2022-07-29T05:46:55;97835.16;;;25.99;41.89
74169;BME280;62523;53.336;83.690;2022-07-29T05:51:56;97847.16;;;26.03;40.31
74169;BME280;62523;53.336;83.690;2022-07-29T05:56:57;97848.09;;;26.34;38.28
74169;BME280;62523;53.336;83.690;2022-07-29T06:01:58;97852.00;;;26.38;39.46
74169;BME280;62523;53.336;83.690;2022-07-29T06:07:00;97855.97;;;26.54;39.01
74169;BME280;62523;53.336;83.690;2022-07-29T06:12:02;97841.00;;;26.40;39.87
74169;BME280;62523;53.336;83.690;2022-07-29T06:17:04;97835.25;;;27.03;38.49
74169;BME280;62523;53.336;83.690;2022-07-29T06:22:06;97850.53;;;26.61;38.80
74169;BME280;62523;53.336;83.690;2022-07-29T06:27:07;97847.75;;;27.04;37.98
74169;BME280;62523;53.336;83.690;2022-07-29T06:32:08;97849.75;;;27.09;37.26
74169;BME280;62523;53.336;83.690;2022-07-29T06:37:09;97852.41;;;26.79;39.38
74169;BME280;62523;53.336;83.690;2022-07-29T06:42:11;97844.78;;;27.24;37.52
74169;BME280;62523;53.336;83.690;2022-07-29T06:47:12;97839.53;;;27.11;38.32
74169;BME280;62523;53.336;83.690;2022-07-29T06:52:13;97843.06;;;27.42;36.90
74169;BME280;62523;53.336;83.690;2022-07-29T06:57:14;97843.41;;;27.33;37.53
74169;BME280;62523;53.336;83.690;2022-07-29T07:02:15;97839.56;;;27.53;37.96
74169;BME280;62523;53.336;83.690;2022-07-29T07:07:17;97825.66;;;27.37;37.54
74169;BME280;62523;53.336;83.690;2022-07-29T07:12:18;97826.09;;;27.76;36.61
74169;BME280;62523;53.336;83.690;2022-07-29T07:17:19;97830.38;;;27.96;37.21
74169;BME280;62523;53.336;83.690;2022-07-29T07:22:20;97825.75;;;27.85;37.64
74169;BME280;62523;53.336;83.690;2022-07-29T07:27:22;97820.72;;;27.88;37.92
74169;BME280;62523;53.336;83.690;2022-07-29T07:32:23;97826.19;;;27.70;37.21
74169;BME280;62523;53.336;83.690;2022-07-29T07:37:25;97825.50;;;27.63;37.19
74169;BME280;62523;53.336;83.690;2022-07-29T07:42:26;97817.38;;;27.63;37.72
74169;BME280;62523;53.336;83.690;2022-07-29T07:47:28;97812.38;;;28.25;36.65
74169;BME280;62523;53.336;83.690;2022-07-29T07:52:29;97817.44;;;27.86;36.88
74169;BME280;62523;53.336;83.690;2022-07-29T07:57:30;97819.75;;;27.83;36.92
74169;BME280;62523;53.336;83.690;2022-07-29T08:02:31;97806.63;;;27.86;37.35
74169;BME280;62523;53.336;83.690;2022-07-29T08:07:33;97804.69;;;27.75;36.82
74169;BME280;62523;53.336;83.690;2022-07-29T08:12:34;97813.78;;;28.28;35.44
74169;BME280;62523;53.336;83.690;2022-07-29T08:17:35;97812.56;;;27.65;36.27
74169;BME280;62523;53.336;83.690;2022-07-29T08:22:37;97809.50;;;27.85;35.38
74169;BME280;62523;53.336;83.690;2022-07-29T08:27:38;97807.97;;;28.59;34.58
74169;BME280;62523;53.336;83.690;2022-07-29T08:32:39;97802.00;;;28.34;34.35
74169;BME280;62523;53.336;83.690;2022-07-29T08:37:40;97804.81;;;27.80;35.33
74169;BME280;62523;53.336;83.690;2022-07-29T08:42:42;97807.22;;;27.46;35.19
74169;BME280;62523;53.336;83.690;2022-07-29T08:47:44;97799.69;;;27.90;34.47
74169;BME280;62523;53.336;83.690;2022-07-29T08:52:46;97808.78;;;27.54;34.57
74169;BME280;62523;53.336;83.690;2022-07-29T08:57:50;97792.81;;;27.64;34.99
74169;BME280;62523;53.336;83.690;2022-07-29T09:02:56;97793.91;;;27.87;33.98
74169;BME280;62523;53.336;83.690;2022-07-29T09:07:59;97793.75;;;27.58;34.87
74169;BME280;62523;53.336;83.690;2022-07-29T09:13:01;97792.06;;;27.57;35.14
74169;BME280;62523;53.336;83.690;2022-07-29T09:18:02;97800.47;;;27.25;37.22
74169;BME280;62523;53.336;83.690;2022-07-29T09:23:07;97789.25;;;27.52;36.23
74169;BME280;62523;53.336;83.690;2022-07-29T09:28:18;97792.66;;;27.59;36.09
74169;BME280;62523;53.336;83.690;2022-07-29T09:33:20;97779.97;;;27.48;32.61
74169;BME280;62523;53.336;83.690;2022-07-29T09:38:22;97792.63;;;27.35;34.12
74169;BME280;62523;53.336;83.690;2022-07-29T09:43:23;97783.38;;;27.78;35.93
74169;BME280;62523;53.336;83.690;2022-07-29T09:48:24;97785.31;;;27.90;36.05
74169;BME280;62523;53.336;83.690;2022-07-29T09:53:35;97778.56;;;27.81;34.62
74169;BME280;62523;53.336;83.690;2022-07-29T09:58:37;97785.91;;;27.38;36.04
74169;BME280;62523;53.336;83.690;2022-07-29T10:03:52;97792.22;;;27.62;35.62
74169;BME280;62523;53.336;83.690;2022-07-29T10:08:54;97783.97;;;27.57;35.31
74169;BME280;62523;53.336;83.690;2022-07-29T10:13:55;97782.00;;;27.64;35.96
74169;BME280;62523;53.336;83.690;2022-07-29T10:18:56;97779.09;;;28.01;36.22
74169;BME280;62523;53.336;83.690;2022-07-29T10:23:59;97791.47;;;27.55;36.38
74169;BME280;62523;53.336;83.690;2022-07-29T10:29:00;97796.13;;;28.02;36.23
74169;BME280;62523;53.336;83.690;2022-07-29T10:34:20;97794.56;;;27.82;35.52
74169;BME280;62523;53.336;83.690;2022-07-29T10:44:43;97797.75;;;27.67;33.72
74169;BME280;62523;53.336;83.690;2022-07-29T10:49:58;97802.66;;;27.70;33.19
74169;BME280;62523;53.336;83.690;2022-07-29T10:55:00;97801.53;;;28.13;33.67
74169;BME280;62523;53.336;83.690;2022-07-29T11:05:18;97802.22;;;27.73;34.53
74169;BME280;62523;53.336;83.690;2022-07-29T11:10:21;97814.91;;;27.61;34.99
74169;BME280;62523;53.336;83.690;2022-07-29T11:15:22;97814.81;;;27.80;34.61
74169;BME280;62523;53.336;83.690;2022-07-29T11:20:40;97808.81;;;27.77;34.55
74169;BME280;62523;53.336;83.690;2022-07-29T11:25:42;97821.81;;;27.45;35.75
74169;BME280;62523;53.336;83.690;2022-07-29T11:30:51;97809.31;;;27.32;35.59
74169;BME280;62523;53.336;83.690;2022-07-29T11:36:11;97803.09;;;27.44;35.86
74169;BME280;62523;53.336;83.690;2022-07-29T11:41:25;97793.50;;;27.71;34.35
74169;BME280;62523;53.336;83.690;2022-07-29T11:46:46;97796.31;;;27.76;34.68
74169;BME280;62523;53.336;83.690;2022-07-29T11:51:55;97798.41;;;27.39;34.62
74169;BME280;62523;53.336;83.690;2022-07-29T11:56:57;97805.44;;;27.40;34.89
74169;BME280;62523;53.336;83.690;2022-07-29T12:01:59;97802.66;;;27.70;35.25
74169;BME280;62523;53.336;83.690;2022-07-29T12:07:00;97810.53;;;27.48;35.19
74169;BME280;62523;53.336;83.690;2022-07-29T12:12:01;97815.91;;;27.36;35.99
74169;BME280;62523;53.336;83.690;2022-07-29T12:17:05;97821.44;;;27.42;35.83
74169;BME280;62523;53.336;83.690;2022-07-29T12:22:06;97810.25;;;27.92;34.62
74169;BME280;62523;53.336;83.690;2022-07-29T12:27:07;97825.09;;;28.25;34.10
74169;BME280;62523;53.336;83.690;2022-07-29T12:32:09;97808.81;;;28.36;34.21
74169;BME280;62523;53.336;83.690;2022-07-29T12:37:11;97807.88;;;28.43;34.48
74169;BME280;62523;53.336;83.690;2022-07-29T12:42:15;97811.22;;;28.09;34.43
74169;BME280;62523;53.336;83.690;2022-07-29T12:47:17;97817.88;;;28.66;33.53
74169;BME280;62523;53.336;83.690;2022-07-29T12:52:30;97827.09;;;28.06;34.36
74169;BME280;62523;53.336;83.690;2022-07-29T12:57:32;97834.84;;;28.26;33.92
74169;BME280;62523;53.336;83.690;2022-07-29T13:03:11;97829.38;;;27.78;34.86
74169;BME280;62523;53.336;83.690;2022-07-29T13:08:17;97839.91;;;27.87;35.13
74169;BME280;62523;53.336;83.690;2022-07-29T13:13:21;97842.56;;;27.75;35.80
74169;BME280;62523;53.336;83.690;2022-07-29T13:18:32;97848.47;;;27.84;35.17
74169;BME280;62523;53.336;83.690;2022-07-29T13:23:34;97855.72;;;27.71;35.67
74169;BME280;62523;53.336;83.690;2022-07-29T13:28:36;97865.19;;;27.50;36.05
74169;BME280;62523;53.336;83.690;2022-07-29T13:33:37;97847.94;;;27.21;36.21
74169;BME280;62523;53.336;83.690;2022-07-29T13:38:38;97837.94;;;26.54;37.68
74169;BME280;62523;53.336;83.690;2022-07-29T13:43:41;97859.72;;;26.34;38.11
74169;BME280;62523;53.336;83.690;2022-07-29T13:48:43;97857.00;;;26.16;38.23
74169;BME280;62523;53.336;83.690;2022-07-29T13:53:44;97848.44;;;26.01;38.87
74169;BME280;62523;53.336;83.690;2022-07-29T13:58:45;97847.69;;;25.87;39.21
74169;BME280;62523;53.336;83.690;2022-07-29T14:03:46;97850.44;;;25.80;39.76
74169;BME280;62523;53.336;83.690;2022-07-29T14:08:47;97842.25;;;25.68;39.78
74169;BME280;62523;53.336;83.690;2022-07-29T14:13:48;97839.63;;;25.55;40.04
74169;BME280;62523;53.336;83.690;2022-07-29T14:18:49;97836.41;;;25.40;40.64
74169;BME280;62523;53.336;83.690;2022-07-29T14:23:50;97842.31;;;25.30;40.99
74169;BME280;62523;53.336;83.690;2022-07-29T14:28:53;97837.78;;;25.17;42.22
74169;BME280;62523;53.336;83.690;2022-07-29T14:33:56;97826.84;;;25.05;43.11
74169;BME280;62523;53.336;83.690;2022-07-29T14:38:57;97833.13;;;24.92;44.19
74169;BME280;62523;53.336;83.690;2022-07-29T14:43:58;97831.72;;;24.83;45.26
74169;BME280;62523;53.336;83.690;2022-07-29T14:49:02;97826.19;;;24.65;45.68
74169;BME280;62523;53.336;83.690;2022-07-29T14:54:04;97838.63;;;24.66;46.16
74169;BME280;62523;53.336;83.690;2022-07-29T14:59:05;97849.22;;;24.54;46.54
74169;BME280;62523;53.336;83.690;2022-07-29T15:04:09;97835.19;;;24.32;47.61
74169;BME280;62523;53.336;83.690;2022-07-29T15:09:10;97841.41;;;24.19;48.20
74169;BME280;62523;53.336;83.690;2022-07-29T15:14:12;97841.63;;;24.24;48.33
74169;BME280;62523;53.336;83.690;2022-07-29T15:19:13;97846.38;;;24.09;48.63
74169;BME280;62523;53.336;83.690;2022-07-29T15:24:16;97852.59;;;23.89;49.12
74169;BME280;62523;53.336;83.690;2022-07-29T15:29:18;97856.34;;;23.82;49.59
74169;BME280;62523;53.336;83.690;2022-07-29T15:34:19;97855.91;;;23.71;49.79
74169;BME280;62523;53.336;83.690;2022-07-29T15:39:21;97864.59;;;23.74;49.62
74169;BME280;62523;53.336;83.690;2022-07-29T15:44:23;97863.75;;;23.73;49.66
74169;BME280;62523;53.336;83.690;2022-07-29T15:49:24;97855.91;;;23.71;49.78
74169;BME280;62523;53.336;83.690;2022-07-29T15:54:32;97853.22;;;23.65;49.69
74169;BME280;62523;53.336;83.690;2022-07-29T15:59:33;97859.00;;;23.68;49.29
74169;BME280;62523;53.336;83.690;2022-07-29T16:04:35;97841.22;;;23.67;49.50
74169;BME280;62523;53.336;83.690;2022-07-29T16:09:36;97852.97;;;23.53;49.90
74169;BME280;62523;53.336;83.690;2022-07-29T16:14:37;97849.25;;;23.41;50.82
74169;BME280;62523;53.336;83.690;2022-07-29T16:19:38;97859.38;;;23.32;50.93
74169;BME280;62523;53.336;83.690;2022-07-29T16:24:39;97843.81;;;23.21;51.47
74169;BME280;62523;53.336;83.690;2022-07-29T16:29:41;97843.41;;;23.10;51.68
74169;BME280;62523;53.336;83.690;2022-07-29T16:34:42;97840.28;;;23.00;51.94
74169;BME280;62523;53.336;83.690;2022-07-29T16:39:46;97842.09;;;22.93;52.08
74169;BME280;62523;53.336;83.690;2022-07-29T16:44:48;97840.22;;;22.87;52.40
74169;BME280;62523;53.336;83.690;2022-07-29T16:49:49;97836.31;;;22.96;52.14
74169;BME280;62523;53.336;83.690;2022-07-29T16:54:50;97843.84;;;22.73;52.74
74169;BME280;62523;53.336;83.690;2022-07-29T16:59:51;97830.41;;;22.66;52.54
74169;BME280;62523;53.336;83.690;2022-07-29T17:04:52;97846.31;;;22.67;52.87
74169;BME280;62523;53.336;83.690;2022-07-29T17:09:53;97838.00;;;22.56;52.60
74169;BME280;62523;53.336;83.690;2022-07-29T17:14:55;97841.88;;;22.46;52.91
74169;BME280;62523;53.336;83.690;2022-07-29T17:19:56;97849.91;;;22.40;52.67
74169;BME280;62523;53.336;83.690;2022-07-29T17:24:57;97838.88;;;22.28;52.80
74169;BME280;62523;53.336;83.690;2022-07-29T17:29:58;97839.84;;;22.20;52.60
74169;BME280;62523;53.336;83.690;2022-07-29T17:34:59;97837.13;;;22.14;52.71
74169;BME280;62523;53.336;83.690;2022-07-29T17:40:00;97837.09;;;22.07;52.86
74169;BME280;62523;53.336;83.690;2022-07-29T17:45:01;97835.19;;;22.01;52.93
74169;BME280;62523;53.336;83.690;2022-07-29T17:50:04;97843.31;;;21.86;53.19
74169;BME280;62523;53.336;83.690;2022-07-29T17:55:06;97832.31;;;21.81;53.19
74169;BME280;62523;53.336;83.690;2022-07-29T18:00:10;97824.38;;;21.66;53.49
74169;BME280;62523;53.336;83.690;2022-07-29T18:05:11;97824.78;;;21.63;54.01
74169;BME280;62523;53.336;83.690;2022-07-29T18:10:12;97822.16;;;21.48;54.60
74169;BME280;62523;53.336;83.690;2022-07-29T18:15:17;97816.75;;;21.41;54.83
74169;BME280;62523;53.336;83.690;2022-07-29T18:20:18;97822.78;;;21.28;55.35
74169;BME280;62523;53.336;83.690;2022-07-29T18:25:19;97808.88;;;21.18;55.50
74169;BME280;62523;53.336;83.690;2022-07-29T18:30:21;97810.44;;;21.27;55.45
74169;BME280;62523;53.336;83.690;2022-07-29T18:35:22;97808.38;;;21.08;55.67
74169;BME280;62523;53.336;83.690;2022-07-29T18:40:23;97794.28;;;20.99;56.13
74169;BME280;62523;53.336;83.690;2022-07-29T18:45:25;97799.69;;;20.84;56.69
74169;BME280;62523;53.336;83.690;2022-07-29T18:50:27;97798.00;;;20.83;56.67
74169;BME280;62523;53.336;83.690;2022-07-29T18:55:28;97786.41;;;20.76;56.74
74169;BME280;62523;53.336;83.690;2022-07-29T19:00:30;97782.09;;;20.60;57.19
74169;BME280;62523;53.336;83.690;2022-07-29T19:05:31;97781.91;;;20.47;57.64
74169;BME280;62523;53.336;83.690;2022-07-29T19:10:32;97777.38;;;20.48;57.34
74169;BME280;62523;53.336;83.690;2022-07-29T19:15:33;97772.25;;;20.46;57.28
74169;BME280;62523;53.336;83.690;2022-07-29T19:20:34;97775.34;;;20.50;57.24
74169;BME280;62523;53.336;83.690;2022-07-29T19:25:36;97772.69;;;20.35;57.66
74169;BME280;62523;53.336;83.690;2022-07-29T19:30:37;97765.25;;;20.30;57.88
74169;BME280;62523;53.336;83.690;2022-07-29T19:35:38;97770.97;;;20.42;57.39
74169;BME280;62523;53.336;83.690;2022-07-29T19:40:40;97769.03;;;20.21;57.97
74169;BME280;62523;53.336;83.690;2022-07-29T19:45:41;97764.25;;;20.16;58.01
74169;BME280;62523;53.336;83.690;2022-07-29T19:50:42;97763.59;;;20.14;57.91
74169;BME280;62523;53.336;83.690;2022-07-29T19:55:44;97769.34;;;20.11;57.88
74169;BME280;62523;53.336;83.690;2022-07-29T20:00:45;97758.25;;;20.14;57.76
74169;BME280;62523;53.336;83.690;2022-07-29T20:05:47;97761.94;;;20.13;57.93
74169;BME280;62523;53.336;83.690;2022-07-29T20:10:50;97767.47;;;19.97;58.47
74169;BME280;62523;53.336;83.690;2022-07-29T20:15:52;97761.47;;;19.80;58.91
74169;BME280;62523;53.336;83.690;2022-07-29T20:20:53;97752.25;;;19.82;59.35
74169;BME280;62523;53.336;83.690;2022-07-29T20:25:56;97759.91;;;19.71;59.76
74169;BME280;62523;53.336;83.690;2022-07-29T20:30:58;97761.09;;;19.83;59.55
74169;BME280;62523;53.336;83.690;2022-07-29T20:35:59;97766.94;;;19.63;60.05
74169;BME280;62523;53.336;83.690;2022-07-29T20:41:00;97769.75;;;19.70;59.75
74169;BME280;62523;53.336;83.690;2022-07-29T20:46:01;97767.47;;;19.82;59.22
74169;BME280;62523;53.336;83.690;2022-07-29T20:51:02;97761.22;;;19.75;59.31
74169;BME280;62523;53.336;83.690;2022-07-29T20:56:04;97767.84;;;19.79;59.31
74169;BME280;62523;53.336;83.690;2022-07-29T21:01:06;97767.31;;;19.60;60.00
74169;BME280;62523;53.336;83.690;2022-07-29T21:06:07;97768.75;;;19.48;60.00
74169;BME280;62523;53.336;83.690;2022-07-29T21:11:08;97773.34;;;19.39;60.65
74169;BME280;62523;53.336;83.690;2022-07-29T21:16:10;97767.94;;;19.48;60.09
74169;BME280;62523;53.336;83.690;2022-07-29T21:21:16;97770.53;;;19.56;60.09
74169;BME280;62523;53.336;83.690;2022-07-29T21:26:17;97773.88;;;19.35;60.46
74169;BME280;62523;53.336;83.690;2022-07-29T21:31:18;97779.44;;;19.10;61.50
74169;BME280;62523;53.336;83.690;2022-07-29T21:36:19;97773.50;;;19.23;60.76
74169;BME280;62523;53.336;83.690;2022-07-29T21:41:20;97764.47;;;19.24;60.74
74169;BME280;62523;53.336;83.690;2022-07-29T21:46:22;97761.28;;;19.43;60.23
74169;BME280;62523;53.336;83.690;2022-07-29T21:51:23;97766.03;;;19.56;59.94
74169;BME280;62523;53.336;83.690;2022-07-29T21:56:24;97765.00;;;19.42;60.64
74169;BME280;62523;53.336;83.690;2022-07-29T22:01:25;97753.63;;;19.26;61.74
74169;BME280;62523;53.336;83.690;2022-07-29T22:06:26;97754.56;;;19.10;62.16
74169;BME280;62523;53.336;83.690;2022-07-29T22:11:27;97764.72;;;18.91;62.73
74169;BME280;62523;53.336;83.690;2022-07-29T22:16:28;97780.94;;;18.81;63.30
74169;BME280;62523;53.336;83.690;2022-07-29T22:21:30;97770.63;;;18.78;62.89
74169;BME280;62523;53.336;83.690;2022-07-29T22:26:31;97774.66;;;18.66;63.58
74169;BME280;62523;53.336;83.690;2022-07-29T22:31:32;97772.03;;;18.58;64.07
74169;BME280;62523;53.336;83.690;2022-07-29T22:36:33;97762.91;;;18.52;64.42
74169;BME280;62523;53.336;83.690;2022-07-29T22:41:34;97761.78;;;18.47;64.75
74169;BME280;62523;53.336;83.690;2022-07-29T22:46:35;97761.28;;;18.43;65.11
74169;BME280;62523;53.336;83.690;2022-07-29T22:51:36;97768.28;;;18.44;65.13
74169;BME280;62523;53.336;83.690;2022-07-29T22:56:38;97769.81;;;18.38;65.48
74169;BME280;62523;53.336;83.690;2022-07-29T23:01:39;97765.28;;;18.39;65.52
74169;BME280;62523;53.336;83.690;2022-07-29T23:06:40;97763.78;;;18.45;65.62
74169;BME280;62523;53.336;83.690;2022-07-29T23:11:41;97774.75;;;18.50;65.51
74169;BME280;62523;53.336;83.690;2022-07-29T23:16:42;97774.72;;;18.58;65.32
74169;BME280;62523;53.336;83.690;2022-07-29T23:21:44;97764.91;;;18.58;65.22
74169;BME280;62523;53.336;83.690;2022-07-29T23:26:45;97758.13;;;18.71;64.99
74169;BME280;62523;53.336;83.690;2022-07-29T23:31:46;97763.47;;;18.79;64.59
74169;BME280;62523;53.336;83.690;2022-07-29T23:36:47;97767.66;;;18.96;63.86
74169;BME280;62523;53.336;83.690;2022-07-29T23:41:48;97766.50;;;20.64;58.53
74169;BME280;62523;53.336;83.690;2022-07-29T23:46:49;97777.25;;;21.28;56.40
74169;BME280;62523;53.336;83.690;2022-07-29T23:51:50;97788.81;;;21.79;54.80
74169;BME280;62523;53.336;83.690;2022-07-29T23:56:52;97800.91;;;21.46;55.70
